sensor_id;sensor_type;location;lat;lon;timestamp;P1;durP1;ratioP1;P2;durP2;ratioP2
22752;SDS011;11543;43.144;24.684;2023-06-22T00:05:03;10.25;;;6.50;;
22752;SDS011;11543;43.144;24.684;2023-06-22T00:07:29;8.13;;;7.32;;
22752;SDS011;11543;43.144;24.684;2023-06-22T00:09:54;9.93;;;7.25;;
22752;SDS011;11543;43.144;24.684;2023-06-22T00:12:20;8.63;;;7.00;;
22752;SDS011;11543;43.144;24.684;2023-06-22T00:14:45;9.55;;;7.10;;
22752;SDS011;11543;43.144;24.684;2023-06-22T00:17:11;11.18;;;6.85;;
22752;SDS011;11543;43.144;24.684;2023-06-22T00:19:36;11.30;;;7.18;;
22752;SDS011;11543;43.144;24.684;2023-06-22T00:22:05;8.70;;;7.13;;
22752;SDS011;11543;43.144;24.684;2023-06-22T00:24:31;10.57;;;7.45;;
22752;SDS011;11543;43.144;24.684;2023-06-22T00:26:56;9.68;;;7.38;;
22752;SDS011;11543;43.144;24.684;2023-06-22T00:29:22;9.48;;;6.95;;
22752;SDS011;11543;43.144;24.684;2023-06-22T00:31:47;8.25;;;7.43;;
22752;SDS011;11543;43.144;24.684;2023-06-22T00:34:13;12.90;;;7.28;;
22752;SDS011;11543;43.144;24.684;2023-06-22T00:36:38;9.45;;;7.05;;
22752;SDS011;11543;43.144;24.684;2023-06-22T00:39:05;8.80;;;6.97;;
22752;SDS011;11543;43.144;24.684;2023-06-22T00:41:32;7.55;;;6.72;;
22752;SDS011;11543;43.144;24.684;2023-06-22T00:43:58;10.90;;;7.20;;
22752;SDS011;11543;43.144;24.684;2023-06-22T00:46:23;9.93;;;7.60;;
22752;SDS011;11543;43.144;24.684;2023-06-22T00:48:50;8.70;;;7.38;;
22752;SDS011;11543;43.144;24.684;2023-06-22T00:51:17;12.15;;;7.30;;
22752;SDS011;11543;43.144;24.684;2023-06-22T00:53:49;9.75;;;7.30;;
22752;SDS011;11543;43.144;24.684;2023-06-22T00:56:16;9.57;;;6.93;;
22752;SDS011;11543;43.144;24.684;2023-06-22T00:58:45;9.57;;;7.45;;
22752;SDS011;11543;43.144;24.684;2023-06-22T06:44:41;10.00;;;7.07;;
22752;SDS011;11543;43.144;24.684;2023-06-22T06:47:07;8.65;;;7.07;;
22752;SDS011;11543;43.144;24.684;2023-06-22T06:49:33;14.57;;;7.50;;
22752;SDS011;11543;43.144;24.684;2023-06-22T06:51:58;12.95;;;6.68;;
22752;SDS011;11543;43.144;24.684;2023-06-22T06:54:24;8.65;;;6.55;;
22752;SDS011;11543;43.144;24.684;2023-06-22T06:56:49;26.27;;;7.20;;
22752;SDS011;11543;43.144;24.684;2023-06-22T06:59:15;8.95;;;6.38;;
22752;SDS011;11543;43.144;24.684;2023-06-22T07:01:41;8.88;;;6.55;;
22752;SDS011;11543;43.144;24.684;2023-06-22T07:04:09;7.53;;;5.80;;
22752;SDS011;11543;43.144;24.684;2023-06-22T07:06:35;9.98;;;5.97;;
22752;SDS011;11543;43.144;24.684;2023-06-22T07:09:00;7.95;;;5.97;;
22752;SDS011;11543;43.144;24.684;2023-06-22T07:11:26;7.90;;;5.47;;
22752;SDS011;11543;43.144;24.684;2023-06-22T07:13:52;6.90;;;6.00;;
22752;SDS011;11543;43.144;24.684;2023-06-22T07:16:17;9.77;;;6.07;;
22752;SDS011;11543;43.144;24.684;2023-06-22T07:31:25;6.57;;;5.43;;
22752;SDS011;11543;43.144;24.684;2023-06-22T07:33:51;8.73;;;5.45;;
22752;SDS011;11543;43.144;24.684;2023-06-22T07:36:17;7.32;;;4.95;;
22752;SDS011;11543;43.144;24.684;2023-06-22T07:38:43;7.03;;;5.28;;
22752;SDS011;11543;43.144;24.684;2023-06-22T07:41:08;7.53;;;4.90;;
22752;SDS011;11543;43.144;24.684;2023-06-22T07:43:34;8.52;;;5.00;;
22752;SDS011;11543;43.144;24.684;2023-06-22T07:46:02;5.78;;;5.00;;
22752;SDS011;11543;43.144;24.684;2023-06-22T07:48:28;6.53;;;5.10;;
22752;SDS011;11543;43.144;24.684;2023-06-22T07:50:54;6.00;;;5.07;;
22752;SDS011;11543;43.144;24.684;2023-06-22T07:53:20;5.80;;;5.20;;
22752;SDS011;11543;43.144;24.684;2023-06-22T07:55:46;6.53;;;4.65;;
22752;SDS011;11543;43.144;24.684;2023-06-22T07:58:12;5.88;;;4.93;;
22752;SDS011;11543;43.144;24.684;2023-06-22T08:00:38;5.68;;;5.00;;
22752;SDS011;11543;43.144;24.684;2023-06-22T08:03:03;7.32;;;5.10;;
22752;SDS011;11543;43.144;24.684;2023-06-22T08:05:30;5.30;;;4.75;;
22752;SDS011;11543;43.144;24.684;2023-06-22T08:07:56;6.45;;;4.70;;
22752;SDS011;11543;43.144;24.684;2023-06-22T08:10:22;6.85;;;4.72;;
22752;SDS011;11543;43.144;24.684;2023-06-22T08:12:48;5.88;;;4.32;;
22752;SDS011;11543;43.144;24.684;2023-06-22T08:15:13;6.20;;;5.07;;
22752;SDS011;11543;43.144;24.684;2023-06-22T08:17:39;9.65;;;5.00;;
22752;SDS011;11543;43.144;24.684;2023-06-22T08:20:06;5.88;;;4.93;;
22752;SDS011;11543;43.144;24.684;2023-06-22T08:22:35;5.50;;;4.90;;
22752;SDS011;11543;43.144;24.684;2023-06-22T08:25:01;7.00;;;5.00;;
22752;SDS011;11543;43.144;24.684;2023-06-22T08:27:28;6.03;;;5.05;;
22752;SDS011;11543;43.144;24.684;2023-06-22T08:29:56;6.30;;;5.22;;
22752;SDS011;11543;43.144;24.684;2023-06-22T08:32:24;7.25;;;4.88;;
22752;SDS011;11543;43.144;24.684;2023-06-22T08:34:52;8.38;;;5.30;;
22752;SDS011;11543;43.144;24.684;2023-06-22T08:37:21;7.53;;;4.75;;
22752;SDS011;11543;43.144;24.684;2023-06-22T08:39:50;5.65;;;5.15;;
22752;SDS011;11543;43.144;24.684;2023-06-22T08:42:15;6.10;;;4.88;;
22752;SDS011;11543;43.144;24.684;2023-06-22T08:44:41;6.72;;;5.20;;
22752;SDS011;11543;43.144;24.684;2023-06-22T08:47:07;6.00;;;4.60;;
22752;SDS011;11543;43.144;24.684;2023-06-22T08:49:34;6.88;;;4.68;;
22752;SDS011;11543;43.144;24.684;2023-06-22T08:52:00;7.78;;;4.90;;
22752;SDS011;11543;43.144;24.684;2023-06-22T08:54:25;5.72;;;4.97;;
22752;SDS011;11543;43.144;24.684;2023-06-22T08:56:51;6.13;;;5.13;;
22752;SDS011;11543;43.144;24.684;2023-06-22T08:59:16;6.63;;;5.10;;
22752;SDS011;11543;43.144;24.684;2023-06-22T09:01:42;7.43;;;4.90;;
22752;SDS011;11543;43.144;24.684;2023-06-22T09:04:10;6.40;;;4.82;;
22752;SDS011;11543;43.144;24.684;2023-06-22T09:06:38;5.90;;;4.82;;
22752;SDS011;11543;43.144;24.684;2023-06-22T09:09:09;8.43;;;4.75;;
22752;SDS011;11543;43.144;24.684;2023-06-22T09:11:36;6.00;;;4.85;;
22752;SDS011;11543;43.144;24.684;2023-06-22T09:14:01;7.40;;;4.75;;
22752;SDS011;11543;43.144;24.684;2023-06-22T09:16:27;8.52;;;4.78;;
22752;SDS011;11543;43.144;24.684;2023-06-22T09:18:52;7.22;;;4.88;;
22752;SDS011;11543;43.144;24.684;2023-06-22T09:21:17;6.45;;;4.55;;
22752;SDS011;11543;43.144;24.684;2023-06-22T09:23:44;5.25;;;4.70;;
22752;SDS011;11543;43.144;24.684;2023-06-22T09:26:12;6.45;;;4.90;;
22752;SDS011;11543;43.144;24.684;2023-06-22T09:28:37;6.78;;;4.97;;
22752;SDS011;11543;43.144;24.684;2023-06-22T09:31:03;7.53;;;4.63;;
22752;SDS011;11543;43.144;24.684;2023-06-22T09:33:28;6.57;;;4.95;;
22752;SDS011;11543;43.144;24.684;2023-06-22T09:35:54;6.10;;;4.47;;
22752;SDS011;11543;43.144;24.684;2023-06-22T09:38:19;6.45;;;5.03;;
22752;SDS011;11543;43.144;24.684;2023-06-22T09:40:46;8.48;;;4.63;;
22752;SDS011;11543;43.144;24.684;2023-06-22T09:43:12;6.85;;;4.30;;
22752;SDS011;11543;43.144;24.684;2023-06-22T09:45:37;6.38;;;4.57;;
22752;SDS011;11543;43.144;24.684;2023-06-22T09:48:03;7.93;;;4.82;;
22752;SDS011;11543;43.144;24.684;2023-06-22T09:50:28;6.25;;;4.72;;
22752;SDS011;11543;43.144;24.684;2023-06-22T09:52:53;6.25;;;4.50;;
22752;SDS011;11543;43.144;24.684;2023-06-22T09:55:23;6.20;;;4.40;;
22752;SDS011;11543;43.144;24.684;2023-06-22T09:57:48;4.95;;;4.45;;
22752;SDS011;11543;43.144;24.684;2023-06-22T10:00:16;6.70;;;4.53;;
22752;SDS011;11543;43.144;24.684;2023-06-22T10:02:44;7.95;;;4.55;;
22752;SDS011;11543;43.144;24.684;2023-06-22T10:05:10;6.63;;;4.68;;
22752;SDS011;11543;43.144;24.684;2023-06-22T10:07:35;5.43;;;4.53;;
22752;SDS011;11543;43.144;24.684;2023-06-22T10:10:05;6.38;;;4.45;;
22752;SDS011;11543;43.144;24.684;2023-06-22T10:12:31;4.60;;;4.20;;
22752;SDS011;11543;43.144;24.684;2023-06-22T10:14:57;5.45;;;4.32;;
22752;SDS011;11543;43.144;24.684;2023-06-22T10:17:22;6.75;;;4.60;;
22752;SDS011;11543;43.144;24.684;2023-06-22T10:19:48;5.10;;;4.40;;
22752;SDS011;11543;43.144;24.684;2023-06-22T10:22:14;9.52;;;4.28;;
22752;SDS011;11543;43.144;24.684;2023-06-22T10:24:39;4.85;;;4.45;;
22752;SDS011;11543;43.144;24.684;2023-06-22T10:27:09;4.95;;;4.07;;
22752;SDS011;11543;43.144;24.684;2023-06-22T10:29:36;4.70;;;4.15;;
22752;SDS011;11543;43.144;24.684;2023-06-22T10:32:01;5.50;;;4.05;;
22752;SDS011;11543;43.144;24.684;2023-06-22T10:34:27;6.28;;;4.07;;
22752;SDS011;11543;43.144;24.684;2023-06-22T10:36:52;5.43;;;4.18;;
22752;SDS011;11543;43.144;24.684;2023-06-22T10:39:18;4.57;;;3.80;;
22752;SDS011;11543;43.144;24.684;2023-06-22T10:41:44;6.22;;;4.32;;
22752;SDS011;11543;43.144;24.684;2023-06-22T10:44:10;5.18;;;4.22;;
22752;SDS011;11543;43.144;24.684;2023-06-22T10:46:37;5.10;;;4.25;;
22752;SDS011;11543;43.144;24.684;2023-06-22T10:49:03;5.32;;;4.82;;
22752;SDS011;11543;43.144;24.684;2023-06-22T10:51:28;5.38;;;4.55;;
22752;SDS011;11543;43.144;24.684;2023-06-22T10:53:54;5.95;;;5.10;;
22752;SDS011;11543;43.144;24.684;2023-06-22T10:56:19;7.43;;;4.80;;
22752;SDS011;11543;43.144;24.684;2023-06-22T10:58:45;5.50;;;4.82;;
22752;SDS011;11543;43.144;24.684;2023-06-22T11:01:11;5.30;;;4.80;;
22752;SDS011;11543;43.144;24.684;2023-06-22T11:03:36;6.22;;;4.43;;
22752;SDS011;11543;43.144;24.684;2023-06-22T11:06:02;7.13;;;4.70;;
22752;SDS011;11543;43.144;24.684;2023-06-22T11:08:31;5.32;;;4.82;;
22752;SDS011;11543;43.144;24.684;2023-06-22T11:10:57;5.43;;;4.82;;
22752;SDS011;11543;43.144;24.684;2023-06-22T11:13:23;8.00;;;5.18;;
22752;SDS011;11543;43.144;24.684;2023-06-22T11:15:50;6.15;;;4.93;;
22752;SDS011;11543;43.144;24.684;2023-06-22T11:18:15;6.50;;;5.20;;
22752;SDS011;11543;43.144;24.684;2023-06-22T11:20:41;5.47;;;4.95;;
22752;SDS011;11543;43.144;24.684;2023-06-22T11:23:07;5.60;;;4.82;;
22752;SDS011;11543;43.144;24.684;2023-06-22T11:25:33;6.03;;;4.75;;
22752;SDS011;11543;43.144;24.684;2023-06-22T11:28:03;8.20;;;5.32;;
22752;SDS011;11543;43.144;24.684;2023-06-22T11:30:29;8.77;;;5.18;;
22752;SDS011;11543;43.144;24.684;2023-06-22T11:32:54;6.43;;;5.07;;
22752;SDS011;11543;43.144;24.684;2023-06-22T11:35:21;5.63;;;5.10;;
22752;SDS011;11543;43.144;24.684;2023-06-22T11:37:48;5.53;;;4.80;;
22752;SDS011;11543;43.144;24.684;2023-06-22T11:40:13;5.88;;;4.70;;
22752;SDS011;11543;43.144;24.684;2023-06-22T11:42:39;6.55;;;4.97;;
22752;SDS011;11543;43.144;24.684;2023-06-22T11:45:04;6.50;;;4.90;;
22752;SDS011;11543;43.144;24.684;2023-06-22T11:47:32;6.22;;;4.82;;
22752;SDS011;11543;43.144;24.684;2023-06-22T11:49:59;8.88;;;5.10;;
22752;SDS011;11543;43.144;24.684;2023-06-22T11:52:25;5.40;;;4.38;;
22752;SDS011;11543;43.144;24.684;2023-06-22T11:54:52;6.82;;;4.72;;
22752;SDS011;11543;43.144;24.684;2023-06-22T11:57:17;6.55;;;5.00;;
22752;SDS011;11543;43.144;24.684;2023-06-22T11:59:43;6.32;;;4.90;;
22752;SDS011;11543;43.144;24.684;2023-06-22T12:02:08;5.82;;;5.10;;
22752;SDS011;11543;43.144;24.684;2023-06-22T12:04:34;10.00;;;4.80;;
22752;SDS011;11543;43.144;24.684;2023-06-22T12:07:00;9.20;;;5.18;;
22752;SDS011;11543;43.144;24.684;2023-06-22T12:09:25;6.03;;;5.30;;
22752;SDS011;11543;43.144;24.684;2023-06-22T12:11:51;5.88;;;5.28;;
22752;SDS011;11543;43.144;24.684;2023-06-22T12:14:16;6.68;;;5.20;;
22752;SDS011;11543;43.144;24.684;2023-06-22T12:16:43;5.82;;;5.22;;
22752;SDS011;11543;43.144;24.684;2023-06-22T12:19:09;7.03;;;5.00;;
22752;SDS011;11543;43.144;24.684;2023-06-22T12:21:37;6.18;;;5.57;;
22752;SDS011;11543;43.144;24.684;2023-06-22T12:24:02;6.43;;;5.63;;
22752;SDS011;11543;43.144;24.684;2023-06-22T12:26:28;7.97;;;5.70;;
22752;SDS011;11543;43.144;24.684;2023-06-22T12:28:53;7.97;;;5.72;;
22752;SDS011;11543;43.144;24.684;2023-06-22T12:31:19;7.85;;;5.70;;
22752;SDS011;11543;43.144;24.684;2023-06-22T12:33:44;8.55;;;5.97;;
22752;SDS011;11543;43.144;24.684;2023-06-22T12:36:10;6.10;;;5.40;;
22752;SDS011;11543;43.144;24.684;2023-06-22T12:38:35;7.05;;;4.97;;
22752;SDS011;11543;43.144;24.684;2023-06-22T12:41:02;5.90;;;5.30;;
22752;SDS011;11543;43.144;24.684;2023-06-22T12:43:28;6.85;;;5.68;;
22752;SDS011;11543;43.144;24.684;2023-06-22T12:45:54;6.30;;;5.68;;
22752;SDS011;11543;43.144;24.684;2023-06-22T12:48:22;6.25;;;5.65;;
22752;SDS011;11543;43.144;24.684;2023-06-22T12:50:47;6.15;;;5.55;;
22752;SDS011;11543;43.144;24.684;2023-06-22T12:53:13;5.97;;;5.30;;
22752;SDS011;11543;43.144;24.684;2023-06-22T12:55:40;5.97;;;5.28;;
22752;SDS011;11543;43.144;24.684;2023-06-22T12:58:05;7.05;;;5.55;;
22752;SDS011;11543;43.144;24.684;2023-06-22T13:00:31;6.50;;;5.28;;
22752;SDS011;11543;43.144;24.684;2023-06-22T13:02:56;6.03;;;5.43;;
22752;SDS011;11543;43.144;24.684;2023-06-22T13:05:22;6.25;;;5.65;;
22752;SDS011;11543;43.144;24.684;2023-06-22T13:07:47;6.75;;;5.65;;
22752;SDS011;11543;43.144;24.684;2023-06-22T13:10:13;7.53;;;5.90;;
22752;SDS011;11543;43.144;24.684;2023-06-22T13:12:40;8.25;;;6.00;;
22752;SDS011;11543;43.144;24.684;2023-06-22T13:15:05;7.72;;;6.25;;
22752;SDS011;11543;43.144;24.684;2023-06-22T13:17:31;8.20;;;6.05;;
22752;SDS011;11543;43.144;24.684;2023-06-22T13:19:59;7.47;;;6.00;;
22752;SDS011;11543;43.144;24.684;2023-06-22T13:22:34;9.55;;;6.50;;
22752;SDS011;11543;43.144;24.684;2023-06-22T13:25:09;9.10;;;6.50;;
22752;SDS011;11543;43.144;24.684;2023-06-22T13:27:39;9.75;;;6.47;;
22752;SDS011;11543;43.144;24.684;2023-06-22T13:30:05;7.85;;;6.20;;
22752;SDS011;11543;43.144;24.684;2023-06-22T13:32:31;8.73;;;6.47;;
22752;SDS011;11543;43.144;24.684;2023-06-22T13:34:57;7.30;;;6.50;;
22752;SDS011;11543;43.144;24.684;2023-06-22T13:37:23;9.13;;;6.90;;
22752;SDS011;11543;43.144;24.684;2023-06-22T13:39:48;7.60;;;6.88;;
22752;SDS011;11543;43.144;24.684;2023-06-22T13:42:14;7.97;;;6.82;;
22752;SDS011;11543;43.144;24.684;2023-06-22T13:44:39;12.60;;;7.18;;
22752;SDS011;11543;43.144;24.684;2023-06-22T13:47:05;11.25;;;6.82;;
22752;SDS011;11543;43.144;24.684;2023-06-22T13:49:31;10.68;;;6.85;;
22752;SDS011;11543;43.144;24.684;2023-06-22T13:51:57;12.32;;;7.40;;
22752;SDS011;11543;43.144;24.684;2023-06-22T13:54:23;8.63;;;6.88;;
22752;SDS011;11543;43.144;24.684;2023-06-22T13:56:49;14.25;;;7.18;;
22752;SDS011;11543;43.144;24.684;2023-06-22T13:59:14;9.93;;;7.30;;
22752;SDS011;11543;43.144;24.684;2023-06-22T14:01:42;7.95;;;6.97;;
22752;SDS011;11543;43.144;24.684;2023-06-22T14:04:10;8.80;;;7.30;;
22752;SDS011;11543;43.144;24.684;2023-06-22T14:06:35;9.20;;;7.75;;
22752;SDS011;11543;43.144;24.684;2023-06-22T14:09:01;11.13;;;7.85;;
22752;SDS011;11543;43.144;24.684;2023-06-22T14:11:27;10.48;;;7.45;;
22752;SDS011;11543;43.144;24.684;2023-06-22T14:13:52;9.43;;;7.97;;
22752;SDS011;11543;43.144;24.684;2023-06-22T14:16:18;10.27;;;7.68;;
22752;SDS011;11543;43.144;24.684;2023-06-22T14:18:44;12.65;;;7.88;;
22752;SDS011;11543;43.144;24.684;2023-06-22T14:21:10;8.70;;;7.72;;
22752;SDS011;11543;43.144;24.684;2023-06-22T14:23:35;10.55;;;7.32;;
22752;SDS011;11543;43.144;24.684;2023-06-22T14:26:02;12.80;;;7.85;;
22752;SDS011;11543;43.144;24.684;2023-06-22T14:28:28;8.52;;;7.70;;
22752;SDS011;11543;43.144;24.684;2023-06-22T14:30:54;9.57;;;7.95;;
22752;SDS011;11543;43.144;24.684;2023-06-22T14:33:19;8.43;;;7.57;;
22752;SDS011;11543;43.144;24.684;2023-06-22T14:35:45;12.63;;;8.40;;
22752;SDS011;11543;43.144;24.684;2023-06-22T14:38:11;10.05;;;8.38;;
22752;SDS011;11543;43.144;24.684;2023-06-22T14:40:36;9.80;;;8.52;;
22752;SDS011;11543;43.144;24.684;2023-06-22T14:43:02;13.63;;;8.18;;
22752;SDS011;11543;43.144;24.684;2023-06-22T14:45:27;9.70;;;8.70;;
22752;SDS011;11543;43.144;24.684;2023-06-22T14:47:53;9.23;;;8.18;;
22752;SDS011;11543;43.144;24.684;2023-06-22T14:50:18;13.25;;;8.75;;
22752;SDS011;11543;43.144;24.684;2023-06-22T14:52:44;10.45;;;8.68;;
22752;SDS011;11543;43.144;24.684;2023-06-22T14:55:09;9.85;;;8.10;;
22752;SDS011;11543;43.144;24.684;2023-06-22T14:57:35;10.48;;;8.25;;
22752;SDS011;11543;43.144;24.684;2023-06-22T15:00:00;9.45;;;8.45;;
22752;SDS011;11543;43.144;24.684;2023-06-22T15:02:27;11.95;;;8.20;;
22752;SDS011;11543;43.144;24.684;2023-06-22T15:04:52;11.25;;;7.68;;
22752;SDS011;11543;43.144;24.684;2023-06-22T15:07:19;9.23;;;7.97;;
22752;SDS011;11543;43.144;24.684;2023-06-22T15:09:45;9.82;;;8.52;;
22752;SDS011;11543;43.144;24.684;2023-06-22T15:12:11;12.52;;;7.72;;
22752;SDS011;11543;43.144;24.684;2023-06-22T15:14:40;9.98;;;7.95;;
22752;SDS011;11543;43.144;24.684;2023-06-22T15:17:06;11.45;;;8.07;;
22752;SDS011;11543;43.144;24.684;2023-06-22T15:19:36;8.57;;;7.63;;
22752;SDS011;11543;43.144;24.684;2023-06-22T15:22:05;9.32;;;7.57;;
22752;SDS011;11543;43.144;24.684;2023-06-22T15:24:33;11.57;;;7.30;;
22752;SDS011;11543;43.144;24.684;2023-06-22T15:26:59;8.60;;;7.18;;
22752;SDS011;11543;43.144;24.684;2023-06-22T15:29:25;10.23;;;7.40;;
22752;SDS011;11543;43.144;24.684;2023-06-22T15:31:52;11.50;;;7.22;;
22752;SDS011;11543;43.144;24.684;2023-06-22T15:34:19;8.93;;;7.28;;
22752;SDS011;11543;43.144;24.684;2023-06-22T15:36:45;8.32;;;7.05;;
22752;SDS011;11543;43.144;24.684;2023-06-22T15:39:11;9.50;;;6.93;;
22752;SDS011;11543;43.144;24.684;2023-06-22T15:41:40;8.65;;;6.70;;
22752;SDS011;11543;43.144;24.684;2023-06-22T15:44:09;9.50;;;6.72;;
22752;SDS011;11543;43.144;24.684;2023-06-22T15:46:34;9.45;;;6.90;;
22752;SDS011;11543;43.144;24.684;2023-06-22T15:49:00;8.20;;;7.32;;
22752;SDS011;11543;43.144;24.684;2023-06-22T15:51:26;7.63;;;6.88;;
22752;SDS011;11543;43.144;24.684;2023-06-22T15:53:55;8.32;;;7.45;;
22752;SDS011;11543;43.144;24.684;2023-06-22T15:56:20;11.95;;;8.30;;
22752;SDS011;11543;43.144;24.684;2023-06-22T15:58:53;10.13;;;7.32;;
22752;SDS011;11543;43.144;24.684;2023-06-22T16:01:20;8.20;;;7.30;;
22752;SDS011;11543;43.144;24.684;2023-06-22T16:03:50;9.88;;;7.60;;
22752;SDS011;11543;43.144;24.684;2023-06-22T16:06:16;8.65;;;7.63;;
22752;SDS011;11543;43.144;24.684;2023-06-22T16:08:41;9.65;;;7.70;;
22752;SDS011;11543;43.144;24.684;2023-06-22T16:11:07;10.02;;;7.30;;
22752;SDS011;11543;43.144;24.684;2023-06-22T16:13:32;8.27;;;7.35;;
22752;SDS011;11543;43.144;24.684;2023-06-22T16:15:58;10.13;;;7.60;;
22752;SDS011;11543;43.144;24.684;2023-06-22T16:18:24;14.38;;;9.57;;
22752;SDS011;11543;43.144;24.684;2023-06-22T16:20:49;11.95;;;8.52;;
22752;SDS011;11543;43.144;24.684;2023-06-22T16:23:15;11.80;;;8.65;;
22752;SDS011;11543;43.144;24.684;2023-06-22T16:25:40;9.68;;;8.57;;
22752;SDS011;11543;43.144;24.684;2023-06-22T16:28:08;8.95;;;7.82;;
22752;SDS011;11543;43.144;24.684;2023-06-22T16:30:34;9.15;;;7.35;;
22752;SDS011;11543;43.144;24.684;2023-06-22T16:32:59;17.85;;;9.82;;
22752;SDS011;11543;43.144;24.684;2023-06-22T16:35:27;11.80;;;8.75;;
22752;SDS011;11543;43.144;24.684;2023-06-22T16:37:54;24.48;;;12.63;;
22752;SDS011;11543;43.144;24.684;2023-06-22T16:40:20;22.50;;;12.02;;
22752;SDS011;11543;43.144;24.684;2023-06-22T16:42:47;28.70;;;14.50;;
22752;SDS011;11543;43.144;24.684;2023-06-22T16:45:13;21.30;;;12.05;;
22752;SDS011;11543;43.144;24.684;2023-06-22T16:47:40;13.77;;;10.00;;
22752;SDS011;11543;43.144;24.684;2023-06-22T16:50:09;12.98;;;9.68;;
22752;SDS011;11543;43.144;24.684;2023-06-22T16:52:35;11.07;;;8.95;;
22752;SDS011;11543;43.144;24.684;2023-06-22T16:55:02;13.48;;;9.43;;
22752;SDS011;11543;43.144;24.684;2023-06-22T16:57:30;9.98;;;8.57;;
22752;SDS011;11543;43.144;24.684;2023-06-22T16:59:55;12.15;;;8.35;;
22752;SDS011;11543;43.144;24.684;2023-06-22T17:02:22;10.30;;;8.30;;
22752;SDS011;11543;43.144;24.684;2023-06-22T17:04:51;13.07;;;8.40;;
22752;SDS011;11543;43.144;24.684;2023-06-22T17:07:18;9.75;;;8.45;;
22752;SDS011;11543;43.144;24.684;2023-06-22T17:09:46;13.02;;;8.20;;
22752;SDS011;11543;43.144;24.684;2023-06-22T17:12:13;10.63;;;8.43;;
22752;SDS011;11543;43.144;24.684;2023-06-22T17:14:39;16.38;;;9.00;;
22752;SDS011;11543;43.144;24.684;2023-06-22T17:17:05;11.80;;;8.65;;
22752;SDS011;11543;43.144;24.684;2023-06-22T17:19:32;8.80;;;7.95;;
22752;SDS011;11543;43.144;24.684;2023-06-22T17:21:57;9.23;;;8.05;;
22752;SDS011;11543;43.144;24.684;2023-06-22T17:24:23;8.88;;;7.97;;
22752;SDS011;11543;43.144;24.684;2023-06-22T17:26:53;9.93;;;8.60;;
22752;SDS011;11543;43.144;24.684;2023-06-22T17:29:19;9.77;;;8.35;;
22752;SDS011;11543;43.144;24.684;2023-06-22T17:31:45;11.63;;;8.40;;
22752;SDS011;11543;43.144;24.684;2023-06-22T17:34:15;9.55;;;8.65;;
22752;SDS011;11543;43.144;24.684;2023-06-22T17:36:45;9.00;;;8.00;;
22752;SDS011;11543;43.144;24.684;2023-06-22T17:39:17;9.40;;;8.40;;
22752;SDS011;11543;43.144;24.684;2023-06-22T17:41:44;9.52;;;8.60;;
22752;SDS011;11543;43.144;24.684;2023-06-22T17:44:13;10.23;;;8.25;;
22752;SDS011;11543;43.144;24.684;2023-06-22T17:46:42;18.80;;;10.52;;
22752;SDS011;11543;43.144;24.684;2023-06-22T17:49:08;9.85;;;8.70;;
22752;SDS011;11543;43.144;24.684;2023-06-22T17:51:35;9.93;;;8.55;;
22752;SDS011;11543;43.144;24.684;2023-06-22T17:54:04;9.70;;;8.73;;
22752;SDS011;11543;43.144;24.684;2023-06-22T17:56:31;10.77;;;9.20;;
22752;SDS011;11543;43.144;24.684;2023-06-22T17:58:57;10.63;;;8.35;;
22752;SDS011;11543;43.144;24.684;2023-06-22T18:01:30;9.35;;;8.23;;
22752;SDS011;11543;43.144;24.684;2023-06-22T18:04:00;12.52;;;8.88;;
22752;SDS011;11543;43.144;24.684;2023-06-22T18:06:37;9.55;;;8.30;;
22752;SDS011;11543;43.144;24.684;2023-06-22T18:09:05;10.52;;;8.77;;
22752;SDS011;11543;43.144;24.684;2023-06-22T18:11:32;10.55;;;8.60;;
22752;SDS011;11543;43.144;24.684;2023-06-22T18:14:04;13.00;;;8.88;;
22752;SDS011;11543;43.144;24.684;2023-06-22T18:16:31;10.02;;;8.88;;
22752;SDS011;11543;43.144;24.684;2023-06-22T18:18:58;10.10;;;8.75;;
22752;SDS011;11543;43.144;24.684;2023-06-22T18:21:25;12.82;;;9.55;;
22752;SDS011;11543;43.144;24.684;2023-06-22T18:23:52;14.32;;;9.48;;
22752;SDS011;11543;43.144;24.684;2023-06-22T18:26:21;13.52;;;9.40;;
22752;SDS011;11543;43.144;24.684;2023-06-22T18:28:50;10.88;;;9.27;;
22752;SDS011;11543;43.144;24.684;2023-06-22T18:31:17;12.95;;;9.23;;
22752;SDS011;11543;43.144;24.684;2023-06-22T18:33:44;10.25;;;8.73;;
22752;SDS011;11543;43.144;24.684;2023-06-22T18:36:09;15.00;;;8.63;;
22752;SDS011;11543;43.144;24.684;2023-06-22T18:38:35;11.25;;;9.13;;
22752;SDS011;11543;43.144;24.684;2023-06-22T18:41:05;10.52;;;8.82;;
22752;SDS011;11543;43.144;24.684;2023-06-22T18:43:30;13.13;;;9.00;;
22752;SDS011;11543;43.144;24.684;2023-06-22T18:51:54;11.88;;;9.73;;
22752;SDS011;11543;43.144;24.684;2023-06-22T18:59:50;12.25;;;9.40;;
22752;SDS011;11543;43.144;24.684;2023-06-22T19:15:57;10.75;;;9.23;;
22752;SDS011;11543;43.144;24.684;2023-06-22T19:23:35;11.52;;;9.93;;
22752;SDS011;11543;43.144;24.684;2023-06-22T19:28:46;15.40;;;10.65;;
22752;SDS011;11543;43.144;24.684;2023-06-22T19:31:22;14.98;;;10.68;;
22752;SDS011;11543;43.144;24.684;2023-06-22T19:34:07;14.25;;;11.65;;
22752;SDS011;11543;43.144;24.684;2023-06-22T19:36:34;12.73;;;9.68;;
22752;SDS011;11543;43.144;24.684;2023-06-22T19:39:00;10.70;;;9.57;;
22752;SDS011;11543;43.144;24.684;2023-06-22T19:41:27;12.18;;;9.80;;
22752;SDS011;11543;43.144;24.684;2023-06-22T19:43:54;10.10;;;9.07;;
22752;SDS011;11543;43.144;24.684;2023-06-22T19:46:27;10.52;;;9.05;;
22752;SDS011;11543;43.144;24.684;2023-06-22T19:48:54;11.80;;;9.63;;
22752;SDS011;11543;43.144;24.684;2023-06-22T19:51:20;11.07;;;9.30;;
22752;SDS011;11543;43.144;24.684;2023-06-22T19:53:46;13.40;;;9.50;;
22752;SDS011;11543;43.144;24.684;2023-06-22T19:56:18;11.18;;;9.35;;
22752;SDS011;11543;43.144;24.684;2023-06-22T19:58:44;10.90;;;9.25;;
22752;SDS011;11543;43.144;24.684;2023-06-22T20:01:10;10.48;;;9.07;;
22752;SDS011;11543;43.144;24.684;2023-06-22T20:03:38;13.35;;;9.52;;
22752;SDS011;11543;43.144;24.684;2023-06-22T20:06:09;12.20;;;10.20;;
22752;SDS011;11543;43.144;24.684;2023-06-22T20:08:46;12.15;;;9.55;;
22752;SDS011;11543;43.144;24.684;2023-06-22T20:11:13;10.82;;;9.73;;
22752;SDS011;11543;43.144;24.684;2023-06-22T20:13:46;11.88;;;9.60;;
22752;SDS011;11543;43.144;24.684;2023-06-22T20:16:13;13.88;;;10.38;;
22752;SDS011;11543;43.144;24.684;2023-06-22T20:18:38;15.18;;;10.45;;
22752;SDS011;11543;43.144;24.684;2023-06-22T20:21:06;16.27;;;10.93;;
22752;SDS011;11543;43.144;24.684;2023-06-22T20:23:35;13.10;;;10.30;;
22752;SDS011;11543;43.144;24.684;2023-06-22T20:26:00;12.60;;;10.35;;
22752;SDS011;11543;43.144;24.684;2023-06-22T20:28:26;12.10;;;9.90;;
22752;SDS011;11543;43.144;24.684;2023-06-22T20:33:37;14.10;;;10.52;;
22752;SDS011;11543;43.144;24.684;2023-06-22T20:36:05;12.88;;;10.18;;
22752;SDS011;11543;43.144;24.684;2023-06-22T20:38:31;13.18;;;9.65;;
22752;SDS011;11543;43.144;24.684;2023-06-22T20:40:58;13.27;;;10.00;;
22752;SDS011;11543;43.144;24.684;2023-06-22T20:43:24;10.95;;;9.85;;
22752;SDS011;11543;43.144;24.684;2023-06-22T20:45:53;14.40;;;10.02;;
22752;SDS011;11543;43.144;24.684;2023-06-22T20:48:19;12.38;;;9.68;;
22752;SDS011;11543;43.144;24.684;2023-06-22T20:50:47;15.45;;;10.80;;
22752;SDS011;11543;43.144;24.684;2023-06-22T20:53:13;13.18;;;9.88;;
22752;SDS011;11543;43.144;24.684;2023-06-22T20:55:39;12.32;;;9.77;;
22752;SDS011;11543;43.144;24.684;2023-06-22T20:58:04;12.23;;;10.60;;
22752;SDS011;11543;43.144;24.684;2023-06-22T21:00:31;12.48;;;10.55;;